Impacts METAR Board
IDs:

KFLL - Ft Lauderdale-Hollyw, FL, US

Updated at: 2200 UTC 20 Oct 2018
Potential Impact None Slight Moderate High
Time 20/10Z 20/11Z 20/12Z 20/13Z 20/14Z 20/15Z 20/16Z 20/17Z 20/18Z 20/19Z 20/20Z 20/21Z 20/22Z
Temp77 77 78 80 81 85 85 88 87 87 85 85 83
Dewpt75 76 76 77 76 74 74 75 75 75 76 75 75
Altim30.02 30.03 30.04 30.06 30.07 30.07 30.05 30.02 29.99 29.96 29.95 29.94 29.94
VIS10 10 10 10 10 10 10 10 10 10 10 10 10
CIG-- 60 60 60 -- -- -- -- -- -- -- -- --
CoverSCTBKNBKNBKNSCTSCTSCTSCTSCTSCTFEWFEWFEW
FltCatVFRVFRVFRVFRVFRVFRVFRVFRVFRVFRVFRVFRVFR
WX--------------------------
WDir3303403303303306008090100120140150
WSpd3 3 3 4 5 4 0 5 10 9 9 8 10
WGst-- -- -- -- -- -- -- -- -- -- -- -- --
Raw hourly METARs
KFLL 200953Z 33003KT 10SM SCT029 25/24 A3002 RMK AO2 SLP165 T02500239
KFLL 201053Z 34003KT 10SM FEW028 BKN060 25/24 A3003 RMK AO2 SLP168 T02500244
KFLL 201153Z 33003KT 10SM FEW027 BKN060 26/24 A3004 RMK AO2 SLP170 T02560244 10256 20244 53006
KFLL 201253Z 33004KT 10SM FEW025 BKN060 27/25 A3006 RMK AO2 SLP177 T02670250
KFLL 201353Z 33005KT 10SM FEW025 SCT060 27/24 A3007 RMK AO2 SLP182 T02720244
KFLL 201453Z 06004KT 10SM SCT027 SCT075 29/23 A3007 RMK AO2 SLP180 T02940233 50010
KFLL 201553Z 00000KT 10SM SCT033 29/23 A3005 RMK AO2 SLP176 T02940233
KFLL 201653Z 08005KT 10SM SCT036 31/24 A3002 RMK AO2 SLP165 T03110239
KFLL 201753Z 09010KT 10SM SCT037 31/24 A2999 RMK AO2 SLP154 T03060239 10311 20256 58026
KFLL 201853Z 10009KT 10SM SCT038 31/24 A2996 RMK AO2 SLP145 T03060239
KFLL 201953Z 12009KT 10SM FEW035 29/24 A2995 RMK AO2 SLP141 T02940244
KFLL 202053Z 14008KT 10SM FEW034 29/24 A2994 RMK AO2 SLP138 T02940239 56016
KFLL 202153Z 15010KT 10SM FEW036 28/24 A2994 RMK AO2 SLP138 T02830239



Page loaded:  22:30 UTC  |   03:30 PM Pacific  |   04:30 PM Mountain  |   05:30 PM Central  |   06:30 PM Eastern

 

ADVISORIES

FORECASTS

FORECASTS

OBSERVATIONS

USER TOOLS

ABOUT US